首页
METAR-TAF:

METAR-TAF

机场 :

Churchill, 曼尼托巴, 加拿大

纬度: 58-44N, 经度: 094-04W, 海拔: 28米

当前天气观测

该预报发布于18分钟前的18:00 UTC
风速14节,风向南转西南
温度 21°C
湿度 60%
气压 999 hPa
能見度: 24.1公里
散云层高于14000英尺

METAR: CYYQ 151800Z 21014KT 15SM SCT140 21/13 A2949 RMK AC3 SLP990 DENSITY ALT 1300FT

时间: 13:18 (18:18 UTC)

预报

该预报发布于40分钟前的17:38 UTC
预报有效从15日的 18点(UTC)到 16日的 18点(UTC)
风速12节,风向西南,有时为22节阵风
能見度: 10公里
少量云层高于15000英尺
从 15日的 2300点(UTC)
风速15节,风向西南,有时为25节阵风
能見度: 10公里
多云层高于8000英尺
短暂存在
从 15日的 23点(UTC)到 16日的 08点(UTC)
能見度: 10公里
少量云层高于600英尺
多云层高于4000英尺
阴天层高于8000英尺
小阵雨
成为
从 16日的 04点(UTC)到 16日的 06点(UTC)
风速15节,风向西北,有时为25节阵风
从 16日的 0800点(UTC)
风速25节,风向北转西北,有时为35节阵风
能見度: 10公里
散云层高于1200英尺
多云层高于3000英尺
成为
从 16日的 14点(UTC)到 16日的 16点(UTC)
风速15节,风向北转西北
散云层高于3000英尺

TAF: CYYQ 151738Z 1518/1618 22012G22KT P6SM FEW150 FM152300 22015G25KT P6SM BKN080 TEMPO 1523/1608 P6SM -SHRA FEW006 BKN040 OVC080 BECMG 1604/1606 32015G25KT FM160800 34025G35KT P6SM SCT012 BKN030 BECMG 1614/1616 34015KT SCT030 RMK NXT FCST BY 160000Z

超过4000个机场的气象观测和天气预报(METAR&TAF报告)。

可查询的气象台以黄色和红色小点在地图上表示。

将鼠标移到小点上方,可查看气象台名称。

然后点击查看天气观测和预报。

如需切换地图:点击带黑十字的绿色按钮放大地图;点击带横线的绿色按钮缩小地图;或者点击绿色箭头查看邻近地区的地图。


METAR-TAF: